Ciflik Tusha, Albania

11:05 AM CET on November 18, 2017 (GMT +0100)
Ioannis Kapodistrias | | Change Station

Elev 13 ft 39.62 °N, 19.92 °E | Updated 15 minutes ago

Rain
Rain
59 °F
Feels Like 59 °F
N
17
Wind Variable Wind from SE

Today
High -- | Low -- °F
--% Chance of Precip.
Yesterday
High -- | Low -- °F
Precip. -- in
Pressure 29.83 in
Visibility 4.3 miles
Clouds Mostly Cloudy 1500 ft
Few 1800 ft
Mostly Cloudy 2500 ft
Overcast 7000 ft
Dew Point 57 °F
Humidity 94%
Rainfall 0.00 in
Snow Depth Not available.
6:27 AM 4:21 PM
Waning Crescent, 0% visible
METAR LGKR 180950Z 13015KT 7000 -RA BKN015 FEW018TCU BKN025 OVC070 15/14 Q1010 NOSIG
Pressure 29.83 in
Visibility 4.3 miles
Clouds Mostly Cloudy 1500 ft
Few 1800 ft
Mostly Cloudy 2500 ft
Overcast 7000 ft
Dew Point 57 °F
Humidity 94%
Rainfall 0.00 in
Snow Depth Not available.
6:27 AM 4:21 PM
Waning Crescent, 0% visible
METAR LGKR 180950Z 13015KT 7000 -RA BKN015 FEW018TCU BKN025 OVC070 15/14 Q1010 NOSIG

Get Severe Weather Alerts

Thanks for signing up!

Be on the lookout for a verification email in your inbox.

You'll start receiving the daily forecast at 6 AM.

×

10-Day Weather Forecast

×

Almanac

Astronomy

Nov. 18, 2017 Rise Set
Actual Time
Civil Twilight
Nautical Twilight
Astronomical Twilight
Moon
Length of Visible Light
Length of Day
Tomorrow will be .
, % of the Moon is Illuminated

Today's Extremes

Country Highs Country Lows

Community

WunderPhotos

Category 6

Welcome to Category 6. This is the collective home for Weather Underground's featured writeups by Dr. Jeff Masters (right), Bob Henson (left), Chris Burt, and other regular contributors.

Nearby

Air Quality

  Air Quality AQ Index Pollutant
Not available.

Snow Depth

Station Depth Elevation

Earthquake Activity

City Distance Mag. Time & Date
Minimum magnitude displayed is 2.5.

Coastal Water Temperatures

Place Temperature

Stations

Nearby Weather Stations

Station Location Temp. Windchill Dew Point Humidity Wind Precip. Elev Updated Type